Map

Track Data

SID SEASON NUMBER BASIN SUBBASIN NAME ISO_TIME NATURE LAT LON WMO_WIND WMO_PRES WMO_AGENCY TRACK_TYPE DIST2LAND LANDFALL IFLAG USA_AGENCY USA_ATCF_ID USA_LAT USA_LON USA_RECORD USA_STATUS USA_WIND USA_PRES USA_SSHS USA_R34_NE USA_R34_SE USA_R34_SW USA_R34_NW USA_R50_NE USA_R50_SE USA_R50_SW USA_R50_NW USA_R64_NE USA_R64_SE USA_R64_SW USA_R64_NW USA_POCI USA_ROCI USA_RMW USA_EYE TOKYO_LAT TOKYO_LON TOKYO_GRADE TOKYO_WIND TOKYO_PRES TOKYO_R50_DIR TOKYO_R50_LONG TOKYO_R50_SHORT TOKYO_R30_DIR TOKYO_R30_LONG TOKYO_R30_SHORT TOKYO_LAND CMA_LAT CMA_LON CMA_CAT CMA_WIND CMA_PRES HKO_LAT HKO_LON HKO_CAT HKO_WIND HKO_PRES NEWDELHI_LAT NEWDELHI_LON NEWDELHI_GRADE NEWDELHI_WIND NEWDELHI_PRES NEWDELHI_CI NEWDELHI_DP NEWDELHI_POCI REUNION_LAT REUNION_LON REUNION_TYPE REUNION_WIND REUNION_PRES REUNION_TNUM REUNION_CI REUNION_RMW REUNION_R34_NE REUNION_R34_SE REUNION_R34_SW REUNION_R34_NW REUNION_R50_NE REUNION_R50_SE REUNION_R50_SW REUNION_R50_NW REUNION_R64_NE REUNION_R64_SE REUNION_R64_SW REUNION_R64_NW BOM_LAT BOM_LON BOM_TYPE BOM_WIND BOM_PRES BOM_TNUM BOM_CI BOM_RMW BOM_R34_NE BOM_R34_SE BOM_R34_SW BOM_R34_NW BOM_R50_NE BOM_R50_SE BOM_R50_SW BOM_R50_NW BOM_R64_NE BOM_R64_SE BOM_R64_SW BOM_R64_NW BOM_ROCI BOM_POCI BOM_EYE BOM_POS_METHOD BOM_PRES_METHOD NADI_LAT NADI_LON NADI_CAT NADI_WIND NADI_PRES WELLINGTON_LAT WELLINGTON_LON WELLINGTON_WIND WELLINGTON_PRES DS824_LAT DS824_LON DS824_STAGE DS824_WIND DS824_PRES TD9636_LAT TD9636_LON TD9636_STAGE TD9636_WIND TD9636_PRES TD9635_LAT TD9635_LON TD9635_WIND TD9635_PRES TD9635_ROCI NEUMANN_LAT NEUMANN_LON NEUMANN_CLASS NEUMANN_WIND NEUMANN_PRES MLC_LAT MLC_LON MLC_CLASS MLC_WIND MLC_PRES USA_GUST BOM_GUST BOM_GUST_PER REUNION_GUST REUNION_GUST_PER USA_SEAHGT USA_SEARAD_NE USA_SEARAD_SE USA_SEARAD_SW USA_SEARAD_NW STORM_SPEED STORM_DIR
1979180N03155 1979 49 WP MM FAYE 1979-06-28 18:00:00 TS 2.80000 155.000 main 757 727 O________O____ jtwc_wp WP071979 2.80000 155.000 15 -1 2.80000 155.000 TC 15 6 232
1979180N03155 1979 49 WP MM FAYE 1979-06-28 21:00:00 TS 2.61500 154.765 main 727 700 P________P____ WP071979 2.61500 154.765 15 -1 2.61500 154.765 TC 15 6 239
1979180N03155 1979 49 WP MM FAYE 1979-06-29 00:00:00 TS 2.50000 154.500 main 700 685 O________OO___ jtwc_wp WP071979 2.50000 154.500 15 -1 2.50000 154.500 TC 15 2.50000 154.500 1 15 6 261
1979180N03155 1979 49 WP MM FAYE 1979-06-29 03:00:00 TS 2.52246 154.197 main 685 680 P________PP___ WP071979 2.50501 154.193 15 -1 2.50501 154.193 TC 15 2.59226 154.217 1 15 6 282
1979180N03155 1979 49 WP MM FAYE 1979-06-29 06:00:00 TS 2.62389 153.913 main 681 680 O________OP___ jtwc_wp WP071979 2.60000 153.900 15 -1 2.60000 153.900 TC 15 2.68759 153.948 1 15 6 294
1979180N03155 1979 49 WP MM FAYE 1979-06-29 09:00:00 TS 2.75303 153.686 main 690 685 P________PP___ WP071979 2.73499 153.678 15 -1 2.73499 153.678 TC 15 2.78912 153.704 1 15 5 304
1979180N03155 1979 49 WP MM FAYE 1979-06-29 12:00:00 TS 2.90000 153.500 main 691 686 O________OO___ jtwc_wp WP071979 2.90000 153.500 15 -1 2.90000 153.500 TC 15 2.90000 153.500 1 15 5 310
1979180N03155 1979 49 WP MM FAYE 1979-06-29 15:00:00 TS 3.04112 153.342 main 692 692 P________PP___ WP071979 3.04999 153.342 15 -1 3.04999 153.342 TC 15 3.02339 153.341 1 15 4 314
1979180N03155 1979 49 WP MM FAYE 1979-06-29 18:00:00 TS 3.18747 153.202 main 708 705 O________OP___ jtwc_wp WP071979 3.20000 153.200 15 -1 3.20000 153.200 TC 15 3.16242 153.207 1 15 4 316
1979180N03155 1979 49 WP MM FAYE 1979-06-29 21:00:00 TS 3.33508 153.062 main 715 715 P________PP___ WP071979 3.34249 153.057 15 -1 3.34249 153.057 TC 15 3.32025 153.070 1 15 4 316
1979180N03155 1979 49 WP MM FAYE 1979-06-30 00:00:00 TS 3.50000 152.900 main 729 729 O________OO___ jtwc_wp WP071979 3.50000 152.900 15 -1 3.50000 152.900 TC 15 3.50000 152.900 1 15 5 315
1979180N03155 1979 49 WP MM FAYE 1979-06-30 03:00:00 TS 3.69114 152.708 main 744 741 P________PP___ WP071979 3.68498 152.730 17 -1 3.68498 152.730 TC 17 3.70345 152.665 1 16 6 313
1979180N03155 1979 49 WP MM FAYE 1979-06-30 06:00:00 TS 3.90917 152.465 main 760 758 O________OP___ jtwc_wp WP071979 3.90000 152.500 20 -1 3.90000 152.500 TC 20 3.92752 152.395 1 17 7 309
1979180N03155 1979 49 WP MM FAYE 1979-06-30 09:00:00 TS 4.14929 152.144 main 773 773 P________PP___ WP071979 4.14252 152.165 20 -1 4.14252 152.165 TC 20 4.16282 152.102 1 18 8 306
1979180N03155 1979 49 WP MM FAYE 1979-06-30 12:00:00 TS 4.40000 151.800 main 801 800 O________OO___ jtwc_wp WP071979 4.40000 151.800 20 -1 4.40000 151.800 TC 20 4.40000 151.800 1 20 8 308
1979180N03155 1979 49 WP MM FAYE 1979-06-30 15:00:00 TS 4.64934 151.500 main 820 820 P________PP___ WP071979 4.65748 151.492 20 -1 4.65748 151.492 TC 20 4.63307 151.515 1 20 8 310
1979180N03155 1979 49 WP MM FAYE 1979-06-30 18:00:00 TS 4.88831 151.207 main 852 851 O________OP___ jtwc_wp WP071979 4.90000 151.200 20 -1 4.90000 151.200 TC 20 4.86492 151.222 1 20 7 307
1979180N03155 1979 49 WP MM FAYE 1979-06-30 21:00:00 TS 5.10143 150.906 main 874 874 P________PP___ WP071979 5.10749 150.900 20 -1 5.10749 150.900 TC 20 5.08931 150.918 1 20 7 304
1979180N03155 1979 49 WP MM FAYE 1979-07-01 00:00:00 TS 5.30000 150.600 main 897 897 O________OO___ jtwc_wp WP071979 5.30000 150.600 20 -1 5.30000 150.600 TC 20 5.30000 150.600 1 20 7 304
1979180N03155 1979 49 WP MM FAYE 1979-07-01 03:00:00 TS 5.50403 150.317 main 910 910 P________PP___ WP071979 5.50746 150.315 22 -1 5.50746 150.315 TC 22 5.49717 150.321 1 21 7 312
1979180N03155 1979 49 WP MM FAYE 1979-07-01 06:00:00 TS 5.76556 150.077 1004 tokyo main 934 931 OOO______OP___ jtwc_wp WP071979 5.70000 150.000 25 -1 6.00000 151.000 2 1004 0 0 0 6.40000 150.000 0 19 1004 5.70000 150.000 TC 25 5.67945 150.020 1 22 7 310
1979180N03155 1979 49 WP MM FAYE 1979-07-01 09:00:00 TS 5.98267 149.746 main 943 940 PPP______PP___ WP071979 5.86490 149.652 25 -1 6.28260 150.500 2 1003 0 0 6.42513 149.540 0 19 1004 5.86490 149.652 TC 25 5.84702 149.658 1 23 9 297
1979180N03155 1979 49 WP MM FAYE 1979-07-01 12:00:00 TS 6.15000 149.317 1002 tokyo main 953 942 OOO______OO___ jtwc_wp WP071979 6.00000 149.200 25 -1 6.50000 150.000 2 1002 0 0 0 6.40000 149.100 0 19 1004 6.00000 149.200 TC 25 6.00000 149.200 1 25 10 285
1979180N03155 1979 49 WP MM FAYE 1979-07-01 15:00:00 TS 6.24284 148.786 main 943 943 PPP______PP___ WP071979 6.09998 148.602 25 -1 6.61495 149.500 2 1001 0 0 6.29987 148.680 0 19 1004 6.09998 148.602 TC 25 6.09942 148.548 1 25 12 277
1979180N03155 1979 49 WP MM FAYE 1979-07-01 18:00:00 TS 6.29820 148.161 1000 tokyo main 945 941 OOO______OP___ jtwc_wp WP071979 6.20000 147.900 25 -1 6.70000 149.000 2 1000 0 0 0 6.20000 148.200 0 19 1004 6.20000 147.900 TC 25 6.19099 147.807 1 25 13 276
1979180N03155 1979 49 WP MM FAYE 1979-07-01 21:00:00 TS 6.37344 147.475 main 952 952 PPP______PP___ WP071979 6.30512 147.120 25 -1 6.83490 148.515 2 1000 0 0 6.11010 147.557 0 19 1004 6.30512 147.120 TC 25 6.31194 147.063 1 25 14 280
1979180N03155 1979 49 WP MM FAYE 1979-07-02 00:00:00 TS 6.54000 146.820 1000 tokyo main 963 963 OOO______OO___ jtwc_wp WP071979 6.50000 146.400 25 -1 7.00000 148.000 2 1000 0 0 0 6.20000 146.900 0 19 1004 6.50000 146.400 TC 25 6.50000 146.400 1 25 13 293
1979180N03155 1979 49 WP MM FAYE 1979-07-02 03:00:00 TS 6.87598 146.299 main 1009 1009 PPP______PP___ WP071979 6.86986 145.883 25 -1 7.19248 147.415 2 1000 0 0 6.62489 146.378 0 19 1004 6.86986 145.883 TC 25 6.82281 145.940 1 25 12 308
1979180N03155 1979 49 WP MM FAYE 1979-07-02 06:00:00 TS 7.28234 145.854 1000 tokyo main 1056 1056 OOO______OP___ jtwc_wp WP071979 7.30000 145.500 25 -1 7.40000 146.800 2 1000 0 0 0 7.20000 145.900 0 19 1004 7.30000 145.500 TC 25 7.21169 145.568 1 25 12 312
1979180N03155 1979 49 WP MM FAYE 1979-07-02 09:00:00 TS 7.65289 145.441 main 1106 1106 PPP______PP___ WP071979 7.66489 145.192 25 -1 7.59245 146.192 2 999 0 0 7.72246 145.393 0 21 1003 7.66489 145.192 TC 25 7.61977 145.237 1 25 11 311
1979180N03155 1979 49 WP MM FAYE 1979-07-02 12:00:00 TS 7.99524 145.033 998 tokyo main 1145 1145 OOOO_____OO___ jtwc_wp WP071979 8.00000 144.900 25 -1 7.80000 145.600 2 998 0 0 0 8.20000 144.900 1 23 1002 7.90000 144.900 TD 25 1000 8.00000 144.900 TC 25 8.00000 144.900 1 25 11 308
1979180N03155 1979 49 WP MM FAYE 1979-07-02 15:00:00 TS 8.30255 144.592 main 1186 1186 PPPP_____PP___ WP071979 8.32248 144.522 27 -1 8.01984 145.057 2 997 0 0 8.60996 144.427 1 26 1001 8.18257 144.463 TD 27 1000 8.32248 144.522 TC 27 8.29801 144.493 1 26 11 303
1979180N03155 1979 49 WP MM FAYE 1979-07-02 18:00:00 TS 8.57997 144.134 996 tokyo main 1230 1230 OOOO_____OP___ jtwc_wp WP071979 8.60000 144.100 30 -1 8.30000 144.500 2 996 0 0 0 8.90000 144.000 1 29 1000 8.50000 144.000 TD 30 1000 8.60000 144.100 TC 30 8.55983 144.072 1 27 11 300
1979180N03155 1979 49 WP MM FAYE 1979-07-02 21:00:00 TS 8.83609 143.662 main 1263 1263 PPPP_____PP___ WP071979 8.81494 143.665 30 -1 8.70757 143.843 2 995 0 0 9.02234 143.657 1 33 999 8.86499 143.500 TD 32 999 8.81494 143.665 TC 30 8.79174 143.640 1 28 11 297
1979180N03155 1979 49 WP MM FAYE 1979-07-03 00:00:00 TS 9.06667 143.183 35 994 tokyo main 1310 1310 OOOO_____OO___ jtwc_wp WP071979 9.00000 143.200 30 -1 9.10000 143.200 3 35 994 0 8 125 70 0 9.10000 143.300 2 38 998 9.20000 143.000 TS 35 998 9.00000 143.200 TC 30 9.00000 143.200 1 30 11 295
1979180N03155 1979 49 WP MM FAYE 1979-07-03 03:00:00 TS 9.28051 142.687 main 1319 1311 PPPP_____PP___ WP071979 9.20752 142.693 32 -1 9.33740 142.655 3 37 994 0 8 127 75 9.29255 142.815 2 38 998 9.43749 142.520 TS 35 998 9.20752 142.693 TC 32 9.20056 142.749 1 31 10 293
1979180N03155 1979 49 WP MM FAYE 1979-07-03 06:00:00 TS 9.46332 142.215 40 994 tokyo main 1320 1313 OOOO_____OP___ jtwc_wp WP071979 9.40000 142.200 35 0 9.50000 142.200 3 40 994 0 8 130 80 0 9.50000 142.300 2 38 998 9.60000 142.100 TS 35 998 9.40000 142.200 TC 35 9.37993 142.292 1 32 9 291
1979180N03155 1979 49 WP MM FAYE 1979-07-03 09:00:00 TS 9.61483 141.799 main 1316 1313 PPPP_____PP___ WP071979 9.55744 141.770 35 0 9.66489 141.827 3 42 994 0 8 130 80 9.65751 141.812 2 38 997 9.70741 141.777 TS 37 997 9.55744 141.770 TC 35 9.54432 141.840 1 33 8 290
1979180N03155 1979 49 WP MM FAYE 1979-07-03 12:00:00 TS 9.75000 141.433 45 994 tokyo main 1325 1319 OOOO_____OO___ jtwc_wp WP071979 9.70000 141.400 35 0 9.80000 141.500 3 45 994 0 8 130 80 0 9.80000 141.400 2 38 996 9.80000 141.500 TS 40 997 9.70000 141.400 TC 35 9.70000 141.400 2 35 7 293
1979180N03155 1979 49 WP MM FAYE 1979-07-03 15:00:00 TS 9.89472 141.126 main 1328 1325 PPPP_____PP___ WP071979 9.84983 141.115 37 0 9.89244 141.157 3 45 994 0 8 130 80 9.96484 141.142 2 38 996 9.94240 141.222 TS 40 996 9.84983 141.115 TC 37 9.86900 141.002 2 36 7 295
1979180N03155 1979 49 WP MM FAYE 1979-07-03 18:00:00 TS 10.0382 140.802 45 994 tokyo main 1326 1323 OOOO_____OP___ jtwc_wp WP071979 10.0000 140.800 40 0 10.0000 140.800 3 45 994 0 8 130 80 0 10.1000 140.900 2 38 996 10.1000 140.900 TS 40 996 10.0000 140.800 TC 40 10.0295 140.615 2 37 8 292
1979180N03155 1979 49 WP MM FAYE 1979-07-03 21:00:00 TS 10.1854 140.388 main 1329 1320 PPPP_____PP___ WP071979 10.1576 140.315 40 0 10.2074 140.423 3 45 993 0 8 130 80 10.1574 140.560 2 38 995 10.2574 140.495 TS 40 996 10.1576 140.315 TC 40 10.1752 140.221 2 38 9 288
1979180N03155 1979 49 WP MM FAYE 1979-07-04 00:00:00 TS 10.3167 139.917 45 992 tokyo main 1320 1316 OOOO_____OO___ jtwc_wp WP071979 10.3000 139.800 40 0 10.4000 140.000 3 45 992 0 8 130 80 0 10.2000 140.100 2 38 995 10.4000 140.000 TS 40 996 10.3000 139.800 TC 40 10.3000 139.800 2 40 10 284
1979180N03155 1979 49 WP MM FAYE 1979-07-04 03:00:00 TS 10.4248 139.436 main 1312 1307 PPPP_____PP___ WP071979 10.4148 139.415 37 0 10.4799 139.537 3 45 992 0 8 125 100 10.3002 139.465 2 43 992 10.5224 139.445 TS 42 996 10.4148 139.415 TC 37 10.4168 139.337 2 38 10 281
1979180N03155 1979 49 WP MM FAYE 1979-07-04 06:00:00 TS 10.5016 138.908 45 992 tokyo main 1307 1295 OOOO_____OP___ jtwc_wp WP071979 10.5000 139.000 35 0 10.5000 139.000 3 45 992 0 9 120 120 0 10.4000 138.800 3 48 990 10.6000 138.800 TS 45 996 10.5000 139.000 TC 35 10.5098 138.845 2 37 11 277
1979180N03155 1979 49 WP MM FAYE 1979-07-04 09:00:00 TS 10.5609 138.314 main 1300 1261 PPPP_____PP___ WP071979 10.5801 138.415 35 0 10.5225 138.365 3 45 992 0 9 120 120 10.4796 138.308 3 48 990 10.6301 138.050 TS 45 995 10.5801 138.415 TC 35 10.5729 138.331 2 36 12 273
1979180N03155 1979 49 WP MM FAYE 1979-07-04 12:00:00 TS 10.5667 137.700 45 992 tokyo main 1261 1195 OOOO_____OO___ jtwc_wp WP071979 10.6000 137.800 35 0 10.5000 137.700 3 45 992 0 9 120 120 0 10.5000 137.800 3 48 990 10.6000 137.300 TS 45 995 10.6000 137.800 TC 35 10.6000 137.800 2 35 12 266
1979180N03155 1979 49 WP MM FAYE 1979-07-04 15:00:00 TS 10.4733 137.088 main 1195 1139 PPPP_____PP___ WP071979 10.5073 137.300 32 -1 10.3925 137.062 3 45 992 0 9 120 120 10.3927 137.092 3 48 990 10.5226 136.580 TS 45 994 10.5073 137.300 TC 32 10.5174 137.195 2 33 12 260
1979180N03155 1979 49 WP MM FAYE 1979-07-04 18:00:00 TS 10.3685 136.531 45 992 tokyo main 1129 1083 OOOO_____OP___ jtwc_wp WP071979 10.4000 136.800 30 -1 10.3000 136.500 3 45 992 0 9 120 120 0 10.3000 136.400 3 48 990 10.4000 136.100 TS 45 993 10.4000 136.800 TC 30 10.4107 136.587 2 32 10 260
1979180N03155 1979 49 WP MM FAYE 1979-07-04 21:00:00 TS 10.3007 136.041 main 1073 1041 PPPP_____PP___ WP071979 10.3328 136.132 30 -1 10.2900 136.018 3 50 991 0 9 120 120 10.3399 135.845 3 48 990 10.1598 136.083 TS 50 991 10.3328 136.132 TC 30 10.3486 136.035 2 31 8 270
1979180N03155 1979 49 WP MM FAYE 1979-07-05 00:00:00 TS 10.3667 135.700 55 990 tokyo main 1044 1034 OOOO_____OO___ jtwc_wp WP071979 10.4000 135.600 30 -1 10.4000 135.700 4 55 990 9 30 30 9 120 120 0 10.5000 135.500 3 48 990 10.1000 136.200 STS 55 990 10.4000 135.600 TC 30 10.4000 135.600 1 30 6 309
1979180N03155 1979 49 WP MM FAYE 1979-07-05 03:00:00 TS 10.6592 135.593 main 1041 1041 PPPP_____PP___ WP071979 10.6898 135.490 27 -1 10.6549 135.620 4 52 990 9 9 110 90 10.7549 135.462 3 48 990 10.5100 136.110 STS 55 987 10.6898 135.490 TC 27 10.6562 135.385 1 28 7 348
1979180N03155 1979 49 WP MM FAYE 1979-07-05 06:00:00 TS 11.0715 135.547 50 990 tokyo main 1040 1034 OOOO_____OP___ jtwc_wp WP071979 11.1000 135.500 25 -1 11.0000 135.600 4 50 990 0 8 100 60 0 11.1000 135.500 3 48 990 11.1000 135.900 STS 55 985 11.1000 135.500 TC 25 11.0291 135.282 1 27 9 345
1979180N03155 1979 49 WP MM FAYE 1979-07-05 09:00:00 TS 11.4796 135.370 main 1039 1019 PPPP_____PP___ WP071979 11.5000 135.330 25 -1 11.3425 135.437 4 45 992 0 8 80 60 11.5000 135.338 3 43 992 11.5726 135.573 STS 47 989 11.5000 135.330 TC 25 11.4625 135.213 1 26 9 333
1979180N03155 1979 49 WP MM FAYE 1979-07-05 12:00:00 TS 11.8833 135.133 40 994 tokyo main 1019 1000 OOOO_____OO___ jtwc_wp WP071979 11.9000 135.100 25 -1 11.7000 135.200 3 40 994 0 9 60 60 0 11.9000 135.100 2 38 995 12.0000 135.200 TS 40 994 11.9000 135.100 TC 25 11.9000 135.100 1 25 9 328
1979180N03155 1979 49 WP MM FAYE 1979-07-05 15:00:00 TS 12.2265 134.893 main 1000 973 PPPP_____PP___ WP071979 12.2574 134.880 25 -1 12.0425 134.930 3 37 995 0 9 60 60 12.1924 134.895 2 38 995 12.3723 134.915 TS 40 995 12.2574 134.880 TC 25 12.2368 134.856 1 25 9 322
1979180N03155 1979 49 WP MM FAYE 1979-07-05 18:00:00 TS 12.5616 134.592 35 996 tokyo main 975 938 OOOO_____OP___ jtwc_wp WP071979 12.6000 134.600 25 -1 12.4000 134.600 3 35 996 0 9 60 60 0 12.5000 134.600 2 38 995 12.7000 134.600 TS 40 997 12.6000 134.600 TC 25 12.5698 134.554 1 25 10 316
1979180N03155 1979 49 WP MM FAYE 1979-07-05 21:00:00 TS 12.9217 134.199 main 938 904 PPPP_____PP___ WP071979 12.9650 134.223 25 -1 12.7775 134.222 3 998 0 9 12.9051 134.137 2 38 996 12.9999 134.187 TS 37 997 12.9650 134.223 TC 25 12.9179 134.200 1 25 11 312
1979180N03155 1979 49 WP MM FAYE 1979-07-06 00:00:00 TS 13.3000 133.750 1000 tokyo main 907 862 OOOO_____OO___ jtwc_wp WP071979 13.3000 133.800 25 -1 13.2000 133.800 2 1000 0 0 0 13.4000 133.600 2 38 998 13.3000 133.700 TS 35 998 13.3000 133.800 TC 25 13.3000 133.800 1 25 12 311
1979180N03155 1979 49 WP MM FAYE 1979-07-06 03:00:00 TS 13.6725 133.307 main 862 826 PPPP_____PP___ WP071979 13.4973 133.422 25 -1 13.6774 133.365 2 1000 0 0 14.0000 133.085 2 33 999 13.6200 133.165 TS 30 999 13.4973 133.422 TC 25 13.7430 133.384 1 25 12 312
1979180N03155 1979 49 WP MM FAYE 1979-07-06 06:00:00 TS 14.1033 132.837 1000 tokyo main 818 793 OOOO_____OP___ jtwc_wp WP071979 13.8000 133.000 25 -1 14.2000 132.900 2 1000 0 0 0 14.6000 132.600 1 29 1000 14.0000 132.600 TD 25 1000 13.8000 133.000 TC 25 14.2198 132.925 1 25 14 316
1979180N03155 1979 49 WP MM FAYE 1979-07-06 09:00:00 TS 14.6585 132.337 main 787 759 PPPP_____PP___ WP071979 14.4700 132.480 25 -1 14.7350 132.400 2 1001 0 0 15.1096 132.215 1 29 1001 14.4551 132.020 TD 25 1000 14.4700 132.480 TC 25 14.7116 132.428 1 25 15 319
1979180N03155 1979 49 WP MM FAYE 1979-07-06 12:00:00 TS 15.2333 131.817 1002 tokyo main 759 738 OOOO_____OO___ jtwc_wp WP071979 15.2000 131.900 25 -1 15.3000 131.900 2 1002 0 0 0 15.5000 131.800 1 29 1002 15.0000 131.500 TD 25 1000 15.2000 131.900 TC 25 15.2000 131.900 1 25 15 316
1979180N03155 1979 49 WP MM FAYE 1979-07-06 15:00:00 TS 15.7171 131.290 main 738 719 PPPP_____PP___ WP071979 15.6874 131.300 22 -1 15.9223 131.450 2 1003 0 0 15.7077 131.207 1 26 1003 15.6272 131.135 TD 25 1000 15.6874 131.300 TC 22 15.6703 131.348 1 23 14 313
1979180N03155 1979 49 WP MM FAYE 1979-07-06 18:00:00 TS 16.1796 130.768 1004 tokyo main 726 701 OOOO_____OP___ jtwc_wp WP071979 16.1000 130.700 20 -1 16.5000 131.000 2 1004 0 0 0 15.9000 130.600 1 23 1004 16.3000 130.800 TD 25 1000 16.1000 130.700 TC 20 16.1237 130.777 1 22 14 314
1979180N03155 1979 49 WP MM FAYE 1979-07-06 21:00:00 TS 16.6684 130.271 main 706 680 PPPP_____PP___ WP071979 16.5377 130.138 20 -1 16.9374 130.507 2 1004 0 0 16.2323 130.112 1 23 1004 17.0175 130.365 TD 25 1002 16.5377 130.138 TC 20 16.5653 130.193 1 21 13 317
1979180N03155 1979 49 WP MM FAYE 1979-07-07 00:00:00 TS 17.1600 129.813 1004 tokyo main 686 677 OOOO_____OO___ jtwc_wp WP071979 17.0000 129.600 20 -1 17.3000 130.000 2 1004 0 0 0 16.7000 129.700 1 23 1004 17.6000 129.900 TD 25 1004 17.0000 129.600 TC 20 17.0000 129.600 1 20 13 321
1979180N03155 1979 49 WP MM FAYE 1979-07-07 03:00:00 TS 17.6398 129.436 main 676 672 _PPP__________ WP071979 -1 17.6724 129.492 2 1004 0 0 17.3572 129.365 1 23 1004 17.8899 129.450 TD 25 1004 TC 1 11 317
1979180N03155 1979 49 WP MM FAYE 1979-07-07 06:00:00 TS 18.0000 129.000 1004 tokyo main 672 657 _OOO__________ -1 18.0000 129.000 2 1004 0 0 0 18.0000 129.000 1 23 1004 18.0000 129.000 TD 25 1004 1 11 306
1979180N03155 1979 49 WP MM FAYE 1979-07-07 09:00:00 TS 18.2591 128.524 main 652 612 _PPP__________ -1 18.2723 128.550 2 1004 0 0 18.4476 128.473 1 23 1004 18.0574 128.550 TD 25 1004 1 10 295
1979180N03155 1979 49 WP MM FAYE 1979-07-07 12:00:00 TS 18.4333 128.033 1004 tokyo main 601 559 _OOO__________ -1 18.5000 128.100 2 1004 0 0 0 18.7000 127.900 1 23 1004 18.1000 128.100 TD 25 1004 10 288
1979180N03155 1979 49 WP MM FAYE 1979-07-07 15:00:00 TS 18.5599 127.542 main 548 506 _PPP__________ -1 18.7149 127.615 2 1004 0 0 18.7450 127.369 1 26 1004 18.2199 127.642 TD 25 1004 9 284
1979180N03155 1979 49 WP MM FAYE 1979-07-07 18:00:00 TS 18.6667 127.067 1004 tokyo main 507 465 _OOO__________ -1 18.9000 127.100 2 1004 0 0 0 18.7000 126.900 1 29 1004 18.4000 127.200 TD 25 1004 9 286
1979180N03155 1979 49 WP MM FAYE 1979-07-07 21:00:00 TS 18.8090 126.631 main 455 416 _PPP__________ -1 19.0574 126.557 2 1004 0 0 18.7348 126.527 1 29 1004 18.6348 126.807 TD 25 1004 9 290
1979180N03155 1979 49 WP MM FAYE 1979-07-08 00:00:00 TS 18.9667 126.200 1004 tokyo main 416 366 _OOO__________ -1 19.2000 126.000 2 1004 0 0 0 18.8000 126.200 1 29 1004 18.9000 126.400 TD 25 1004 9 289
1979180N03155 1979 49 WP MM FAYE 1979-07-08 03:00:00 TS 19.1159 125.706 main 366 331 _PPP__________ -1 19.3649 125.443 2 1004 0 0 18.8401 125.790 1 29 1004 19.1427 125.885 TD 25 1005 10 292
1979180N03155 1979 49 WP MM FAYE 1979-07-08 06:00:00 TS 19.3273 125.245 1004 tokyo main 321 304 _OOO__________ -1 19.5000 124.900 2 1004 0 0 0 19.0000 125.500 1 29 1004 19.4000 125.400 TD 25 1006 9 301
1979180N03155 1979 49 WP MM FAYE 1979-07-08 09:00:00 TS 19.5792 124.894 main 304 279 _PPP__________ -1 19.5571 124.415 2 1004 0 0 19.3824 125.470 1 26 1004 19.6997 125.085 TD 25 1006 9 304
1979180N03155 1979 49 WP MM FAYE 1979-07-08 12:00:00 TS 19.8111 124.489 1004 tokyo main 279 245 _OOO__________ -1 19.6000 123.900 2 1004 0 0 0 19.9000 125.600 1 23 1004 20.0000 124.800 TD 25 1006 10 292
1979180N03155 1979 49 WP MM FAYE 1979-07-08 15:00:00 TS 19.9748 123.862 main 245 212 _P_P__________ -1 19.6922 123.295 2 1004 0 0 1 20.2574 124.430 TD 25 1005 12 283
1979180N03155 1979 49 WP MM FAYE 1979-07-08 18:00:00 TS 20.1000 123.200 1004 tokyo main 212 197 _O_O__________ -1 19.8000 122.600 2 1004 0 0 0 20.5000 124.000 TD 25 1004 14 279
1979180N03155 1979 49 WP MM FAYE 1979-07-08 21:00:00 TS 20.1825 122.392 main 201 189 _P_P__________ -1 19.8998 121.830 2 1004 0 0 20.7478 123.515 TD 25 1004 17 273
1979180N03155 1979 49 WP MM FAYE 1979-07-09 00:00:00 TS 20.2000 121.400 1004 tokyo main 186 167 _O_O__________ -1 20.0000 121.000 2 1004 0 0 0 21.0000 123.000 TD 25 1004 21 268
1979180N03155 1979 49 WP MM FAYE 1979-07-09 03:00:00 TS 20.1074 120.143 main 183 183 _P____________ -1 20.1074 120.143 2 1004 0 0 TD 20 270
1979180N03155 1979 49 WP MM FAYE 1979-07-09 06:00:00 TS 20.2000 119.300 1004 tokyo main 238 238 _O____________ -1 20.2000 119.300 2 1004 0 0 0 15 276
1979180N03155 1979 49 WP MM FAYE 1979-07-09 09:00:00 TS 20.2564 118.572 main 281 281 _P____________ -1 20.2564 118.572 2 1004 0 0 14 274
1979180N03155 1979 49 WP MM FAYE 1979-07-09 12:00:00 TS 20.3000 117.800 1004 tokyo main 320 291 _O____________ -1 20.3000 117.800 2 1004 0 0 0 16 273
1979180N03155 1979 49 WP MM FAYE 1979-07-09 15:00:00 TS 20.3493 116.855 main 291 256 _P____________ -1 20.3493 116.855 2 1004 0 0 19 273
1979180N03155 1979 49 WP MM FAYE 1979-07-09 18:00:00 TS 20.4000 115.800 1004 tokyo main 252 _O____________ -1 20.4000 115.800 2 1004 0 0 0 20 273

Digital Typhoon Data and Search

About IBTrACS Database

This database is a web-friendly format of International Best Track Archive for Climate Stewardship (IBTrACS), a global best track data archive curated by NOAA dating back to 1842.

Updated: 2021-10-08